Time;durP1;ratioP1;P1;durP2;ratioP2;P2;SDS_P1;SDS_P2;PMS_P1;PMS_P2;Temp;Humidity;BMP_temperature;BMP_pressure;BME280_temperature;BME280_humidity;BME280_pressure;Samples;Min_cycle;Max_cycle;Signal;HPM_P1;HPM_P2
2022/11/07 00:01:53;;;;;;;2.40;1.77;;;;;;;8.93;100.00;96337.69;5032066;28;105184;-65
2022/11/07 00:04:20;;;;;;;1.30;1.20;;;;;;;8.96;100.00;96342.53;5030944;28;105276;-65
2022/11/07 00:06:49;;;;;;;1.53;1.43;;;;;;;8.97;100.00;96338.00;5031753;28;101981;-65
2022/11/07 00:09:16;;;;;;;1.43;1.33;;;;;;;8.97;100.00;96343.31;5031701;28;105356;-65
2022/11/07 00:11:45;;;;;;;3.07;2.17;;;;;;;8.89;100.00;96343.72;5031133;28;103968;-65
2022/11/07 00:14:13;;;;;;;1.53;1.40;;;;;;;8.88;100.00;96368.66;5031807;28;101853;-65
2022/11/07 00:16:41;;;;;;;1.40;1.30;;;;;;;8.92;100.00;96362.63;5031508;28;104826;-65
2022/11/07 00:19:09;;;;;;;1.10;1.10;;;;;;;8.93;100.00;96356.25;5034437;28;105581;-65
2022/11/07 00:21:37;;;;;;;2.80;1.70;;;;;;;8.85;100.00;96343.41;5031593;28;105038;-65
2022/11/07 00:24:06;;;;;;;1.20;1.10;;;;;;;8.89;100.00;96346.38;5030884;28;105046;-65
2022/11/07 00:26:33;;;;;;;1.50;1.37;;;;;;;8.89;100.00;96352.47;5014586;28;101894;-65
2022/11/07 00:29:01;;;;;;;1.80;1.70;;;;;;;8.86;100.00;96349.50;5031246;28;104916;-65
2022/11/07 00:31:28;;;;;;;1.53;1.40;;;;;;;8.88;100.00;96342.13;5030994;28;105351;-65
2022/11/07 00:33:56;;;;;;;1.60;1.50;;;;;;;8.88;100.00;96344.78;5031256;28;101928;-65
2022/11/07 00:36:25;;;;;;;2.67;1.80;;;;;;;8.84;100.00;96339.13;5031503;28;105041;-65
2022/11/07 00:38:53;;;;;;;2.00;1.70;;;;;;;8.85;100.00;96346.06;5030656;28;104293;-65
2022/11/07 00:41:28;;;;;;;2.10;1.60;;;;;;;8.83;100.00;96350.00;5034432;28;101954;-65
2022/11/07 00:43:56;;;;;;;1.90;1.80;;;;;;;8.82;100.00;96361.63;5030433;28;105136;-65
2022/11/07 00:46:24;;;;;;;1.30;1.20;;;;;;;8.81;100.00;96367.97;5031172;28;101889;-65
2022/11/07 00:48:51;;;;;;;1.73;1.40;;;;;;;8.82;100.00;96364.28;5031085;28;104112;-65
2022/11/07 00:51:34;;;;;;;2.27;1.67;;;;;;;8.81;100.00;96365.31;5029944;27;103847;-65
2022/11/07 00:54:02;;;;;;;2.23;1.60;;;;;;;8.80;100.00;96366.38;4953542;28;101806;-65
2022/11/07 00:56:31;;;;;;;1.40;1.30;;;;;;;8.76;100.00;96374.00;4953327;28;105248;-65
2022/11/07 00:59:00;;;;;;;3.30;2.50;;;;;;;8.84;100.00;96372.81;4952921;28;106852;-65
2022/11/07 01:01:29;;;;;;;1.17;1.10;;;;;;;8.77;100.00;96380.13;4953529;28;101885;-65
2022/11/07 01:06:43;;;;;;;1.63;1.50;;;;;;;8.86;100.00;96378.66;4953374;28;101972;-65
2022/11/07 01:09:12;;;;;;;1.30;1.20;;;;;;;8.89;100.00;96388.81;4953624;28;104932;-65
2022/11/07 01:11:42;;;;;;;1.20;1.10;;;;;;;8.92;100.00;96381.19;4952745;28;105073;-65
2022/11/07 01:14:10;;;;;;;1.43;1.23;;;;;;;8.95;100.00;96371.94;4953592;28;102529;-65
2022/11/07 01:16:38;;;;;;;1.60;1.50;;;;;;;8.93;100.00;96372.19;4953041;28;102594;-65
2022/11/07 01:19:06;;;;;;;1.40;1.30;;;;;;;8.88;100.00;96379.25;4952458;28;104114;-65
2022/11/07 01:21:33;;;;;;;1.30;1.20;;;;;;;8.91;100.00;96376.91;4953326;28;102106;-65
2022/11/07 01:24:02;;;;;;;2.47;1.53;;;;;;;8.93;100.00;96372.19;4953200;28;105243;-65
2022/11/07 01:26:29;;;;;;;1.83;1.30;;;;;;;8.95;100.00;96380.69;4955752;28;101892;-65
2022/11/07 01:28:58;;;;;;;1.30;1.20;;;;;;;8.96;100.00;96376.19;4953090;28;105259;-65
2022/11/07 01:31:25;;;;;;;1.30;1.20;;;;;;;8.91;100.00;96376.91;4994200;28;104531;-65
2022/11/07 01:33:52;;;;;;;0.93;0.93;;;;;;;8.98;100.00;96371.44;5030169;28;102412;-65
2022/11/07 01:36:19;;;;;;;1.00;1.00;;;;;;;9.01;100.00;96382.41;5030627;28;105349;-65
2022/11/07 01:38:48;;;;;;;2.13;1.20;;;;;;;9.06;100.00;96382.44;5029800;28;105022;-65
2022/11/07 01:41:26;;;;;;;1.30;1.20;;;;;;;9.17;100.00;96383.44;5031337;28;101821;-65
2022/11/07 01:43:56;;;;;;;1.37;1.10;;;;;;;9.14;100.00;96375.94;5030339;28;104743;-65
2022/11/07 01:46:28;;;;;;;1.30;1.10;;;;;;;9.07;100.00;96381.44;5033044;28;104043;-65
2022/11/07 01:49:02;;;;;;;1.40;1.30;;;;;;;9.03;100.00;96374.19;5029957;28;105417;-65
2022/11/07 01:51:33;;;;;;;1.07;1.07;;;;;;;9.00;100.00;96366.72;5029284;28;104825;-65
2022/11/07 01:54:01;;;;;;;0.90;0.90;;;;;;;9.02;100.00;96367.28;5030089;28;101921;-65
2022/11/07 01:56:33;;;;;;;1.30;1.20;;;;;;;9.00;100.00;96370.16;5032342;27;101827;-65
2022/11/07 01:59:02;;;;;;;1.67;1.17;;;;;;;9.06;100.00;96376.38;5030953;27;102585;-65
2022/11/07 02:01:31;;;;;;;1.97;1.10;;;;;;;9.05;100.00;96372.91;5030747;27;101862;-65
2022/11/07 02:04:00;;;;;;;1.10;1.10;;;;;;;9.09;100.00;96381.16;5030621;27;102256;-65
2022/11/07 02:06:36;;;;;;;1.10;1.10;;;;;;;9.09;100.00;96381.16;5030533;28;103174;-65
2022/11/07 02:09:03;;;;;;;2.40;1.40;;;;;;;9.08;100.00;96384.88;5033397;28;101942;-65
2022/11/07 02:11:30;;;;;;;1.63;0.97;;;;;;;9.03;100.00;96388.25;5029350;28;102671;-65
2022/11/07 02:13:57;;;;;;;1.40;1.10;;;;;;;9.05;100.00;96372.09;5031239;27;102049;-65
2022/11/07 02:16:25;;;;;;;1.37;1.03;;;;;;;8.98;100.00;96385.53;5031241;27;102397;-65
2022/11/07 02:18:53;;;;;;;1.30;1.17;;;;;;;8.99;100.00;96378.38;5030353;27;101702;-65
2022/11/07 02:21:35;;;;;;;1.17;1.17;;;;;;;8.98;100.00;96382.06;5031044;28;101834;-65
2022/11/07 02:24:13;;;;;;;0.90;0.90;;;;;;;8.98;100.00;96384.69;5031246;27;102866;-65
2022/11/07 02:26:42;;;;;;;1.10;1.10;;;;;;;8.96;100.00;96392.09;5030196;27;103081;-65
2022/11/07 02:29:11;;;;;;;0.93;0.93;;;;;;;8.91;100.00;96397.31;5030735;27;101850;-65
2022/11/07 02:31:39;;;;;;;1.00;1.00;;;;;;;8.85;100.00;96382.38;5033661;28;103307;-65
2022/11/07 02:34:07;;;;;;;0.83;0.83;;;;;;;8.75;100.00;96395.44;5029765;28;102110;-65
2022/11/07 02:36:34;;;;;;;1.93;1.00;;;;;;;8.72;100.00;96387.97;5030500;28;102868;-65
2022/11/07 02:39:01;;;;;;;1.10;1.10;;;;;;;8.72;100.00;96391.44;5028878;28;103890;-65
2022/11/07 02:41:36;;;;;;;0.80;0.80;;;;;;;8.68;100.00;96400.09;5030770;27;101783;-65
2022/11/07 02:44:07;;;;;;;0.90;0.90;;;;;;;8.64;100.00;96386.53;5030857;27;102482;-65
2022/11/07 02:46:36;;;;;;;1.13;1.13;;;;;;;8.59;100.00;96388.25;5030456;27;102460;-65
2022/11/07 02:49:03;;;;;;;1.67;1.33;;;;;;;8.57;100.00;96396.44;5030778;27;101868;-65
2022/11/07 02:51:30;;;;;;;1.40;0.93;;;;;;;8.55;100.00;96389.78;5030102;28;102891;-65
2022/11/07 02:53:57;;;;;;;1.20;1.20;;;;;;;8.63;100.00;96398.19;5033512;28;102542;-65
2022/11/07 02:56:26;;;;;;;2.10;1.17;;;;;;;8.64;100.00;96396.31;5030542;27;102279;-63
2022/11/07 02:58:56;;;;;;;1.30;1.20;;;;;;;8.55;100.00;96398.53;5029800;27;103100;-63
2022/11/07 03:01:24;;;;;;;1.30;1.27;;;;;;;8.58;100.00;96386.66;5030497;27;101825;-63
2022/11/07 03:03:51;;;;;;;2.00;0.90;;;;;;;8.65;100.00;96395.25;5030457;28;102602;-63
2022/11/07 03:06:20;;;;;;;1.50;1.40;;;;;;;8.62;100.00;96403.72;5029884;27;102492;-63
2022/11/07 03:08:48;;;;;;;1.10;1.10;;;;;;;8.63;100.00;96407.97;5030021;27;101827;-63
2022/11/07 03:11:18;;;;;;;1.00;1.00;;;;;;;8.59;100.00;96404.16;5028987;28;104700;-65
2022/11/07 03:13:45;;;;;;;1.23;1.13;;;;;;;8.59;100.00;96410.28;5029647;27;105308;-65
2022/11/07 03:16:15;;;;;;;1.20;1.20;;;;;;;8.61;100.00;96412.69;5036194;28;101850;-65
2022/11/07 03:18:42;;;;;;;1.50;1.37;;;;;;;8.61;100.00;96412.69;5032002;28;104941;-65
2022/11/07 03:21:09;;;;;;;1.40;1.30;;;;;;;8.57;100.00;96411.56;5032339;28;101934;-65
2022/11/07 03:23:37;;;;;;;1.40;1.30;;;;;;;8.51;100.00;96417.81;5032385;28;104681;-65
2022/11/07 03:26:05;;;;;;;1.83;1.10;;;;;;;8.49;100.00;96425.16;5032097;28;105068;-65
2022/11/07 03:28:33;;;;;;;1.10;1.10;;;;;;;8.44;100.00;96427.72;5031671;28;101850;-65
2022/11/07 03:31:01;;;;;;;1.70;1.60;;;;;;;8.40;100.00;96429.25;5032328;28;104996;-65
2022/11/07 03:33:31;;;;;;;1.80;1.70;;;;;;;8.34;100.00;96433.63;5031318;28;105627;-65
2022/11/07 03:35:58;;;;;;;1.40;1.30;;;;;;;8.28;100.00;96434.56;5035720;28;101799;-65
2022/11/07 03:38:25;;;;;;;2.07;1.50;;;;;;;8.25;100.00;96431.59;5031592;28;105465;-65
2022/11/07 03:40:52;;;;;;;1.60;1.50;;;;;;;8.19;100.00;96438.59;5032079;28;101930;-65
2022/11/07 03:43:19;;;;;;;2.30;2.10;;;;;;;8.19;100.00;96435.16;5032001;28;103823;-66
2022/11/07 03:45:47;;;;;;;2.27;1.70;;;;;;;8.17;100.00;96442.50;5031435;28;103115;-65
2022/11/07 03:48:14;;;;;;;2.50;1.60;;;;;;;8.09;100.00;96445.53;5032094;28;102019;-65
2022/11/07 03:50:43;;;;;;;3.37;1.23;;;;;;;8.04;100.00;96440.94;5031491;28;104043;-66
2022/11/07 03:53:11;;;;;;;1.40;1.30;;;;;;;7.99;100.00;96445.31;5031261;28;105795;-66
2022/11/07 03:55:38;;;;;;;1.83;1.43;;;;;;;7.98;100.00;96447.19;5031802;28;101809;-63
2022/11/07 03:58:05;;;;;;;0.93;0.93;;;;;;;7.93;100.00;96451.53;5034780;28;105289;-63
2022/11/07 04:00:32;;;;;;;1.53;1.43;;;;;;;7.97;100.00;96453.47;5032092;28;102271;-63
2022/11/07 04:03:03;;;;;;;1.30;1.20;;;;;;;7.93;100.00;96467.44;5031964;28;104963;-63
2022/11/07 04:05:30;;;;;;;1.53;1.43;;;;;;;7.91;100.00;96464.22;5031178;28;104264;-63
2022/11/07 04:07:59;;;;;;;1.50;1.23;;;;;;;7.85;100.00;96470.44;5033056;27;101950;-63
2022/11/07 04:10:28;;;;;;;1.67;1.30;;;;;;;7.84;100.00;96466.97;5031939;28;104790;-63
2022/11/07 04:18:27;;;;;;;1.43;1.03;;;;;;;7.91;100.00;96472.94;5031676;28;104883;-63
2022/11/07 04:20:54;;;;;;;1.37;1.20;;;;;;;7.85;100.00;96459.84;5034565;28;105537;-64
2022/11/07 04:23:24;;;;;;;1.33;1.23;;;;;;;7.80;100.00;96470.31;5031591;28;105654;-64
2022/11/07 04:28:35;;;;;;;1.43;1.33;;;;;;;7.84;100.00;96472.28;5032556;27;101668;-64
2022/11/07 04:31:03;;;;;;;1.60;1.50;;;;;;;7.84;100.00;96459.03;5032706;28;101674;-65
2022/11/07 04:33:30;;;;;;;1.20;1.10;;;;;;;7.82;100.00;96466.41;5030554;28;105743;-64
2022/11/07 04:35:59;;;;;;;1.00;1.00;;;;;;;7.82;100.00;96455.81;5031522;28;101813;-64
2022/11/07 04:38:27;;;;;;;1.10;1.00;;;;;;;7.79;100.00;96456.28;5032824;27;102335;-64
2022/11/07 04:40:55;;;;;;;1.27;1.20;;;;;;;7.75;100.00;96459.63;5030227;28;104248;-64
2022/11/07 04:43:23;;;;;;;1.27;1.20;;;;;;;7.70;100.00;96476.16;5036007;27;101863;-64
2022/11/07 04:45:50;;;;;;;2.17;1.20;;;;;;;7.65;100.00;96481.38;5031964;27;102044;-64
2022/11/07 04:48:17;;;;;;;2.57;1.30;;;;;;;7.61;100.00;96468.81;5032840;27;101849;-64
2022/11/07 04:50:45;;;;;;;1.17;1.00;;;;;;;7.59;100.00;96476.19;5030749;28;103432;-64
2022/11/07 04:53:13;;;;;;;1.27;1.20;;;;;;;7.54;100.00;96476.06;5031806;27;102761;-64
2022/11/07 04:55:42;;;;;;;1.10;1.10;;;;;;;7.52;100.00;96484.22;5030626;28;101926;-64
2022/11/07 04:58:10;;;;;;;1.57;1.37;;;;;;;7.50;100.00;96473.06;5030970;28;104086;-64
2022/11/07 05:00:37;;;;;;;1.53;1.00;;;;;;;7.32;100.00;96473.16;5031603;27;102559;-64
2022/11/07 05:03:04;;;;;;;1.10;0.97;;;;;;;7.28;100.00;96473.84;5032327;27;101803;-64
2022/11/07 05:05:31;;;;;;;1.57;1.20;;;;;;;7.38;100.00;96468.81;5033888;28;104973;-64
2022/11/07 05:08:00;;;;;;;1.13;1.10;;;;;;;7.35;100.00;96461.31;5030461;28;101676;-64
2022/11/07 05:10:29;;;;;;;1.17;1.17;;;;;;;7.30;100.00;96467.28;5030727;28;104864;-64
2022/11/07 05:12:58;;;;;;;2.10;1.30;;;;;;;7.31;100.00;96470.75;5030381;28;104199;-64
2022/11/07 05:15:25;;;;;;;2.10;1.20;;;;;;;7.31;100.00;96462.81;5030904;28;101921;-63
2022/11/07 05:17:53;;;;;;;1.50;1.40;;;;;;;7.26;100.00;96470.63;5030846;28;103622;-64
2022/11/07 05:20:28;;;;;;;1.77;1.20;;;;;;;7.24;100.00;96470.03;5031074;28;102764;-64
2022/11/07 05:25:42;;;;;;;2.10;1.60;;;;;;;7.21;100.00;96467.84;5030730;28;103653;-64
2022/11/07 05:28:12;;;;;;;1.73;1.40;;;;;;;7.12;100.00;96477.94;5033355;28;105827;-64
2022/11/07 05:30:40;;;;;;;1.90;1.10;;;;;;;7.11;100.00;96479.00;5030508;28;103475;-64
2022/11/07 05:33:08;;;;;;;1.50;1.40;;;;;;;7.11;100.00;96475.53;5029471;28;105011;-64
2022/11/07 05:35:36;;;;;;;1.17;1.10;;;;;;;7.06;100.00;96475.41;5030617;28;101954;-64
2022/11/07 05:38:04;;;;;;;2.77;2.37;;;;;;;7.05;100.00;96485.19;5030170;28;105114;-64
2022/11/07 05:40:35;;;;;;;1.47;1.13;;;;;;;7.05;100.00;96484.38;5029645;28;105013;-64
2022/11/07 05:43:06;;;;;;;1.60;1.50;;;;;;;7.01;100.00;96483.19;5030319;28;101762;-64
2022/11/07 05:45:38;;;;;;;1.60;1.40;;;;;;;7.05;100.00;96490.47;5030079;28;105464;-64
2022/11/07 05:48:20;;;;;;;1.50;1.40;;;;;;;7.16;100.00;96491.53;5029598;28;104168;-64
2022/11/07 05:50:48;;;;;;;1.20;1.20;;;;;;;7.17;100.00;96498.41;4968779;28;103203;-64
2022/11/07 05:53:15;;;;;;;2.67;1.30;;;;;;;7.19;100.00;96499.03;4968598;28;105236;-64
2022/11/07 05:56:15;;;;;;;1.70;1.60;;;;;;;7.17;100.00;96493.94;4969661;28;101807;-64
2022/11/07 05:58:42;;;;;;;1.50;1.40;;;;;;;6.83;100.00;96507.06;4953064;28;105574;-64
2022/11/07 06:01:11;;;;;;;1.70;1.60;;;;;;;6.84;100.00;96506.00;4952346;28;104194;-64
2022/11/07 06:03:38;;;;;;;1.60;1.50;;;;;;;6.96;100.00;96509.50;4953238;28;102205;-64
2022/11/07 06:06:05;;;;;;;1.63;1.40;;;;;;;6.92;100.00;96509.16;4953146;28;104048;-64
2022/11/07 06:08:32;;;;;;;2.20;1.47;;;;;;;6.95;100.00;96516.66;4968802;28;103085;-64
2022/11/07 06:11:19;;;;;;;1.53;1.43;;;;;;;7.07;100.00;96520.13;4956268;28;101972;-64
2022/11/07 06:13:46;;;;;;;1.67;1.43;;;;;;;6.99;100.00;96517.78;4936368;28;104264;-64
2022/11/07 06:16:15;;;;;;;1.50;1.20;;;;;;;7.06;100.00;96526.44;4952893;28;101904;-64
2022/11/07 06:18:42;;;;;;;2.10;1.50;;;;;;;7.15;100.00;96516.38;4952996;28;105024;-65
2022/11/07 06:24:42;;;;;;;1.60;1.50;;;;;;;7.18;100.00;96539.69;4952952;28;101859;-65
2022/11/07 06:27:09;;;;;;;2.57;2.10;;;;;;;7.22;100.00;96538.22;4957596;28;105240;-65
2022/11/07 06:29:36;;;;;;;2.40;2.20;;;;;;;7.21;100.00;96532.13;5009217;28;105249;-65
2022/11/07 06:32:06;;;;;;;2.13;1.93;;;;;;;7.17;100.00;96528.31;5009930;28;101908;-65
2022/11/07 06:34:33;;;;;;;2.50;1.80;;;;;;;7.11;100.00;96537.16;5012487;28;105154;-65
2022/11/07 06:37:00;;;;;;;2.80;1.90;;;;;;;7.04;100.00;96530.34;5009625;28;101941;-65
2022/11/07 06:39:27;;;;;;;2.87;2.10;;;;;;;6.99;100.00;96525.72;5009663;28;104814;-65
2022/11/07 06:42:05;;;;;;;3.87;3.13;;;;;;;6.96;100.00;96528.00;5009004;28;105061;-65
2022/11/07 06:44:33;;;;;;;3.67;3.27;;;;;;;6.63;100.00;96548.78;5009513;28;101813;-68
2022/11/07 06:46:59;;;;;;;5.00;3.40;;;;;;;6.51;100.00;96542.63;4993120;28;105334;-64
2022/11/07 06:49:28;;;;;;;5.00;3.60;;;;;;;6.63;100.00;96551.41;5007591;28;105223;-64
2022/11/07 06:52:00;;;;;;;5.77;4.30;;;;;;;6.32;100.00;96548.94;5009442;28;101858;-64
2022/11/07 06:55:20;;;;;;;6.63;3.70;;;;;;;6.29;100.00;96547.53;5009596;28;105286;-64
2022/11/07 06:57:48;;;;;;;3.60;3.20;;;;;;;6.48;100.00;96545.69;5012305;28;104120;-64
2022/11/07 07:00:16;;;;;;;2.90;2.60;;;;;;;6.67;100.00;96542.84;5008665;28;105209;-64
2022/11/07 07:02:44;;;;;;;2.77;2.53;;;;;;;6.78;100.00;96549.19;5008116;28;105175;-64
2022/11/07 07:05:14;;;;;;;1.90;1.73;;;;;;;6.99;100.00;96551.38;5009055;28;101870;-64
2022/11/07 07:07:41;;;;;;;1.80;1.70;;;;;;;7.11;100.00;96544.28;5008955;28;105382;-64
2022/11/07 07:10:09;;;;;;;4.27;3.60;;;;;;;7.15;100.00;96548.09;5008289;28;104263;-64
2022/11/07 07:12:37;;;;;;;3.93;2.93;;;;;;;7.27;100.00;96552.41;5008821;28;101873;-64
2022/11/07 07:15:04;;;;;;;2.20;2.00;;;;;;;7.40;100.00;96551.38;5008574;28;105327;-64
2022/11/07 07:17:31;;;;;;;2.03;1.80;;;;;;;7.60;100.00;96558.00;5008284;28;104964;-64
2022/11/07 07:19:58;;;;;;;2.23;2.03;;;;;;;7.73;100.00;96562.25;5012198;28;101868;-64
2022/11/07 07:22:27;;;;;;;2.10;1.90;;;;;;;7.91;100.00;96560.31;5007867;28;104010;-64
2022/11/07 07:24:54;;;;;;;2.83;1.90;;;;;;;8.10;100.00;96563.69;5011257;28;101840;-65
2022/11/07 07:27:22;;;;;;;1.47;1.37;;;;;;;8.20;100.00;96567.41;5015010;28;103747;-67
2022/11/07 07:29:52;;;;;;;2.63;1.70;;;;;;;8.35;100.00;96561.63;5021075;28;103845;-67
2022/11/07 07:32:19;;;;;;;1.37;1.27;;;;;;;8.49;100.00;96568.28;5016300;28;102028;-66
2022/11/07 07:34:46;;;;;;;1.60;1.50;;;;;;;8.64;100.00;96571.25;5018987;28;105178;-66
2022/11/07 07:37:13;;;;;;;1.60;1.50;;;;;;;8.78;100.00;96568.13;5016866;28;102783;-66
2022/11/07 07:39:42;;;;;;;2.33;1.97;;;;;;;8.96;100.00;96572.47;5024534;28;102282;-65
2022/11/07 07:42:09;;;;;;;1.60;1.50;;;;;;;9.13;100.00;96573.31;5030441;28;105235;-65
2022/11/07 07:44:36;;;;;;;2.63;1.60;;;;;;;9.26;100.00;96575.69;5020081;28;101842;-65
2022/11/07 07:47:04;;;;;;;3.20;2.57;;;;;;;9.38;100.00;96560.53;5008728;28;101715;-65
2022/11/07 07:49:31;;;;;;;2.53;1.80;;;;;;;9.42;100.00;96572.25;5021407;28;105603;-65
2022/11/07 07:51:58;;;;;;;1.97;1.40;;;;;;;9.38;100.00;96568.50;5027265;28;102245;-65
2022/11/07 07:54:25;;;;;;;1.43;1.20;;;;;;;9.49;100.00;96564.97;5027177;28;105557;-66
2022/11/07 07:56:54;;;;;;;1.20;1.20;;;;;;;9.56;100.00;96570.94;5017259;28;104214;-67
2022/11/07 07:59:22;;;;;;;1.40;1.30;;;;;;;9.65;100.00;96575.59;5018063;28;102156;-67
2022/11/07 08:05:16;;;;;;;1.07;1.00;;;;;;;10.07;100.00;96565.41;5021505;28;102038;-67
2022/11/07 08:07:48;;;;;;;2.10;1.07;;;;;;;10.13;100.00;96564.44;5022298;28;103635;-67
2022/11/07 08:10:15;;;;;;;2.03;1.10;;;;;;;10.16;100.00;96564.78;5021562;28;105459;-67
2022/11/07 08:13:20;;;;;;;1.00;1.00;;;;;;;10.29;100.00;96569.75;5019375;28;101895;-67
2022/11/07 08:15:48;;;;;;;2.77;1.10;;;;;;;10.31;100.00;96566.88;5011461;28;104790;-65
2022/11/07 08:18:15;;;;;;;1.20;1.00;;;;;;;10.47;100.00;96566.81;5014272;27;104370;-65
2022/11/07 08:20:43;;;;;;;1.60;1.30;;;;;;;10.62;100.00;96556.41;5021036;28;101979;-65
2022/11/07 08:23:11;;;;;;;1.00;1.00;;;;;;;10.62;100.00;96560.91;5019997;28;104750;-65
2022/11/07 08:25:41;;;;;;;1.30;1.20;;;;;;;10.67;100.00;96563.63;5016896;28;105715;-65
2022/11/07 08:28:08;;;;;;;1.20;1.07;;;;;;;10.77;100.00;96558.44;5017224;28;104849;-66
2022/11/07 08:30:36;;;;;;;0.90;0.90;;;;;;;10.94;100.00;96565.31;5020714;28;105436;-65
2022/11/07 08:33:10;;;;;;;1.07;1.00;;;;;;;11.22;100.00;96567.75;5020254;28;102348;-64
2022/11/07 08:35:37;;;;;;;0.90;0.90;;;;;;;11.26;100.00;96568.06;5037732;27;104999;-65
2022/11/07 08:38:05;;;;;;;0.97;0.97;;;;;;;11.32;100.00;96572.38;5021570;28;105084;-66
2022/11/07 08:40:32;;;;;;;1.30;1.20;;;;;;;11.48;100.00;96566.97;5032507;27;101929;-66
2022/11/07 08:43:36;;;;;;;1.13;1.03;;;;;;;11.86;100.00;96568.69;5031190;28;105129;-65
2022/11/07 08:46:04;;;;;;;1.10;1.10;;;;;;;11.98;100.00;96574.66;5030658;28;106147;-67
2022/11/07 08:48:32;;;;;;;1.23;0.87;;;;;;;12.04;100.00;96569.09;5034260;28;101805;-67
2022/11/07 08:51:59;;;;;;;1.00;1.00;;;;;;;12.13;100.00;96564.09;5029803;28;105028;-67
2022/11/07 08:54:54;;;;;;;0.90;0.90;;;;;;;12.42;100.00;96562.72;5030870;28;102018;-66
2022/11/07 08:57:21;;;;;;;0.70;0.70;;;;;;;12.57;100.00;96568.13;5032269;27;102933;-66
2022/11/07 08:59:48;;;;;;;1.80;1.17;;;;;;;12.77;100.00;96565.59;5030371;28;104199;-65
2022/11/07 09:02:30;;;;;;;2.13;1.00;;;;;;;12.88;100.00;96564.56;5020223;28;102268;-63
2022/11/07 09:04:59;;;;;;;1.03;0.93;;;;;;;12.92;100.00;96560.31;5015000;27;102424;-64
2022/11/07 09:07:26;;;;;;;0.90;0.70;;;;;;;13.20;100.00;96565.28;5012419;28;102619;-64
2022/11/07 09:09:53;;;;;;;1.03;0.93;;;;;;;13.01;100.00;96564.13;5012369;28;101827;-65
2022/11/07 09:15:43;;;;;;;1.03;1.00;;;;;;;13.19;100.00;96563.66;5024376;28;102988;-64
2022/11/07 09:18:10;;;;;;;1.37;0.93;;;;;;;13.26;100.00;96577.56;5010655;28;105610;-64
2022/11/07 09:20:39;;;;;;;1.00;1.00;;;;;;;13.53;100.00;96567.50;5023318;28;102583;-63
2022/11/07 09:23:06;;;;;;;1.10;1.00;;;;;;;13.58;100.00;96568.28;5032511;27;101829;-65
2022/11/07 09:26:08;;;;;;;0.80;0.80;;;;;;;13.80;100.00;96574.22;5032369;27;102551;-64
2022/11/07 09:28:36;;;;;;;1.50;0.80;;;;;;;13.55;100.00;96568.84;5011006;28;102827;-64
2022/11/07 09:31:26;;;;;;;2.03;0.90;;;;;;;13.82;100.00;96569.41;5025772;28;101998;-64
2022/11/07 09:33:53;;;;;;;0.70;0.70;;;;;;;13.64;100.00;96567.25;5012077;28;102434;-64
2022/11/07 09:36:23;;;;;;;1.43;0.77;;;;;;;13.84;100.00;96575.28;5014565;28;102961;-64
2022/11/07 09:38:50;;;;;;;1.20;0.80;;;;;;;14.12;100.00;96577.44;5011692;28;102296;-64
2022/11/07 09:41:33;;;;;;;0.83;0.83;;;;;;;14.05;100.00;96576.09;5031116;27;103219;-64
2022/11/07 09:44:14;;;;;;;0.70;0.70;;;;;;;13.93;100.00;96587.06;5031864;28;101847;-65
2022/11/07 09:46:55;;;;;;;1.73;1.10;;;;;;;13.81;100.00;96583.03;5031807;28;101806;-65
2022/11/07 09:49:29;;;;;;;0.73;0.63;;;;;;;13.89;100.00;96579.84;5024712;28;106436;-64
2022/11/07 09:52:04;;;;;;;0.93;0.80;;;;;;;14.15;100.00;96579.59;5012055;28;101773;-64
2022/11/07 09:54:44;;;;;;;0.90;0.90;;;;;;;14.17;100.00;96580.13;5016350;28;103522;-64
2022/11/07 09:57:16;;;;;;;0.70;0.70;;;;;;;14.09;100.00;96578.00;5029718;28;105451;-64
2022/11/07 09:59:49;;;;;;;0.60;0.60;;;;;;;14.29;100.00;96575.31;5027602;27;101652;-64
2022/11/07 10:02:45;;;;;;;0.70;0.70;;;;;;;14.54;100.00;96577.97;5011087;28;103478;-64
2022/11/07 10:05:15;;;;;;;0.63;0.63;;;;;;;14.35;100.00;96574.28;5021684;28;102258;-64
2022/11/07 10:07:58;;;;;;;0.77;0.77;;;;;;;14.61;100.00;96569.69;5031769;27;102932;-64
2022/11/07 10:10:37;;;;;;;0.97;0.80;;;;;;;15.03;100.00;96570.88;5029354;28;103827;-64
2022/11/07 10:13:43;;;;;;;1.23;0.80;;;;;;;15.05;100.00;96570.63;5030344;27;101826;-64
2022/11/07 10:16:18;;;;;;;0.93;0.80;;;;;;;15.20;100.00;96568.66;5015918;28;104769;-64
2022/11/07 10:18:57;;;;;;;1.37;0.90;;;;;;;15.24;100.00;96567.06;5027776;27;102772;-65
2022/11/07 10:21:39;;;;;;;1.10;0.97;;;;;;;15.41;100.00;96572.09;5034295;28;101887;-64
2022/11/07 10:24:34;;;;;;;0.97;0.83;;;;;;;15.10;100.00;96576.75;5026885;27;103764;-65
2022/11/07 10:27:02;;;;;;;1.70;0.97;;;;;;;15.14;100.00;96571.63;5026742;28;101990;-64
2022/11/07 10:29:44;;;;;;;3.90;0.80;;;;;;;15.50;100.00;96565.88;5029966;28;105139;-64
2022/11/07 10:33:05;;;;;;;1.60;1.03;;;;;;;15.68;100.00;96562.56;5021503;28;105421;-64
2022/11/07 10:35:34;;;;;;;0.80;0.80;;;;;;;15.50;100.00;96563.22;5009780;28;102028;-64
2022/11/07 10:38:16;;;;;;;2.10;0.70;;;;;;;15.62;100.00;96554.81;5010780;28;102681;-64
2022/11/07 10:40:47;;;;;;;1.57;0.90;;;;;;;15.73;100.00;96553.66;4931856;28;104034;-64
2022/11/07 10:43:31;;;;;;;3.50;0.90;;;;;;;15.27;100.00;96555.00;4948987;28;101921;-64
2022/11/07 10:46:00;;;;;;;1.20;1.10;;;;;;;15.86;100.00;96553.06;4952037;28;104000;-63
2022/11/07 10:48:28;;;;;;;0.80;0.80;;;;;;;15.60;100.00;96562.34;4967572;28;102046;-64
2022/11/07 10:50:56;;;;;;;0.80;0.80;;;;;;;15.46;100.00;96553.28;4968488;28;102347;-64
2022/11/07 10:53:25;;;;;;;1.57;0.90;;;;;;;15.31;100.00;96546.13;4951682;28;105480;-64
2022/11/07 10:56:11;;;;;;;1.23;0.80;;;;;;;15.33;100.00;96554.72;4952271;28;101872;-63
2022/11/07 10:58:44;;;;;;;1.57;0.90;;;;;;;15.39;100.00;96552.81;4932634;28;103536;-63
2022/11/07 11:01:23;;;;;;;1.53;1.20;;;;;;;15.60;99.99;96548.94;4947772;28;103095;-64
2022/11/07 11:03:50;;;;;;;1.33;1.10;;;;;;;15.83;96.09;96556.28;4948964;28;101892;-64
2022/11/07 11:06:30;;;;;;;1.50;1.03;;;;;;;15.93;96.45;96548.97;4949158;28;102549;-64
2022/11/07 11:08:59;;;;;;;1.67;0.73;;;;;;;15.65;93.11;96556.94;4935493;28;106004;-64
2022/11/07 11:11:35;;;;;;;1.70;1.00;;;;;;;15.52;97.51;96546.81;4948923;28;102339;-64
2022/11/07 11:14:11;;;;;;;1.77;0.97;;;;;;;15.56;100.00;96548.69;4931905;28;105420;-64
2022/11/07 11:16:40;;;;;;;0.80;0.80;;;;;;;15.75;95.10;96541.59;4932389;28;102254;-64
2022/11/07 11:19:19;;;;;;;1.87;1.00;;;;;;;15.81;89.43;96542.38;5008954;28;102700;-65
2022/11/07 11:22:12;;;;;;;1.10;1.00;;;;;;;15.57;94.37;96539.56;5009836;28;101694;-63
2022/11/07 11:24:41;;;;;;;1.17;0.73;;;;;;;15.34;99.63;96539.44;5010587;28;101707;-64
2022/11/07 11:27:15;;;;;;;0.90;0.90;;;;;;;15.58;100.00;96535.03;5010278;28;102797;-65
2022/11/07 11:29:51;;;;;;;0.90;0.70;;;;;;;15.64;91.09;96542.72;5030094;27;102552;-62
2022/11/07 11:32:39;;;;;;;1.70;0.93;;;;;;;15.61;98.11;96542.50;5032159;28;101939;-67
2022/11/07 11:35:31;;;;;;;0.73;0.73;;;;;;;15.77;94.58;96544.00;5031475;27;101665;-63
2022/11/07 11:38:05;;;;;;;0.93;0.87;;;;;;;15.91;94.58;96542.28;5028340;27;101760;-64
2022/11/07 11:40:39;;;;;;;0.93;0.93;;;;;;;15.77;94.71;96538.63;5013803;28;102362;-65
2022/11/07 11:47:13;;;;;;;0.63;0.60;;;;;;;16.50;91.06;96532.13;5010837;28;101731;-63
2022/11/07 11:49:46;;;;;;;1.20;1.00;;;;;;;15.87;95.83;96531.31;5013084;28;102467;-63
2022/11/07 11:52:21;;;;;;;0.80;0.70;;;;;;;16.36;91.07;96531.94;5013093;28;102473;-62
2022/11/07 11:55:37;;;;;;;1.90;0.80;;;;;;;16.16;91.51;96534.03;5023288;28;102457;-62
2022/11/07 11:58:15;;;;;;;0.60;0.60;;;;;;;16.24;85.73;96531.53;5029937;28;102483;-62
2022/11/07 12:00:51;;;;;;;1.67;1.10;;;;;;;16.23;83.57;96523.75;5012520;28;101869;-62
2022/11/07 12:03:57;;;;;;;2.17;0.70;;;;;;;16.44;90.21;96522.53;5013346;28;102350;-63
2022/11/07 12:06:30;;;;;;;0.70;0.70;;;;;;;15.99;90.10;96528.28;5011423;28;104239;-63
2022/11/07 12:09:13;;;;;;;1.37;0.70;;;;;;;15.83;86.48;96516.06;5014435;28;103144;-63
2022/11/07 12:12:13;;;;;;;1.93;0.80;;;;;;;15.87;88.52;96514.44;5012224;28;104879;-63
2022/11/07 12:15:03;;;;;;;1.10;1.00;;;;;;;16.25;88.39;96502.81;5011200;28;105309;-63